Bluffs, Illinois
Current Conditions -  °F | °C
As of 5:55 PM on Sunday 21 Dec 2014 (Local Time) from KPPQ Reporting Station
Overcast Overcast  
Wind Chill: 33°   Ceiling: 4600
Heat Index: 40°   Visibility: 10mi
Dew Point: 34°   Wind: 12mph
Humidity: 79%   Direction: 140°SE
Pressure: 29.99"   Gusts: NA
Location:  39.75°N, 90.54°W
Report Text: KPPQ 212355Z AUTO 14010KT 10SM SCT024 OVC046 05/01 A2999 RMK AO2 T00460012 10066 20045
Loading
Personal Weather Stations






























Interactive Weather Map New forecast layout! Learn more

10-Day Weather Forecast

Advertisements
Track Severe Weather on mobile